<?xml version='1.0' encoding='UTF-8'?>
<gpx version="1.1" creator="https://www.komoot.de" xmlns="http://www.topografix.com/GPX/1/1" xmlns:xsi="http://www.w3.org/2001/XMLSchema-instance" xsi:schemaLocation="http://www.topografix.com/GPX/1/1 http://www.topografix.com/GPX/1/1/gpx.xsd">
  <metadata>
    <name>15 km Ville-Seen-Wanderweg von Alt-Hürth</name>
    <author>
      <link href="https://www.komoot.de">
        <text>komoot</text>
        <type>text/html</type>
      </link>
    </author>
  </metadata>
  <trk>
    <name>15 km Ville-Seen-Wanderweg von Alt-Hürth</name>
    <trkseg>
      <trkpt lat="50.869564" lon="6.865394">
        <ele>91.717382</ele>
        <time>2023-11-13T18:28:37.743Z</time>
      </trkpt>
      <trkpt lat="50.869456" lon="6.865180">
        <ele>91.717382</ele>
        <time>2023-11-13T18:28:55.036Z</time>
      </trkpt>
      <trkpt lat="50.869253" lon="6.865484">
        <ele>91.717382</ele>
        <time>2023-11-13T18:29:23.154Z</time>
      </trkpt>
      <trkpt lat="50.869167" lon="6.865540">
        <ele>91.717382</ele>
        <time>2023-11-13T18:29:32.462Z</time>
      </trkpt>
      <trkpt lat="50.869094" lon="6.865636">
        <ele>91.717382</ele>
        <time>2023-11-13T18:29:41.951Z</time>
      </trkpt>
      <trkpt lat="50.868569" lon="6.866328">
        <ele>92.215930</ele>
        <time>2023-11-13T18:30:50.358Z</time>
      </trkpt>
      <trkpt lat="50.868733" lon="6.866696">
        <ele>92.550500</ele>
        <time>2023-11-13T18:31:18.789Z</time>
      </trkpt>
      <trkpt lat="50.868930" lon="6.867051">
        <ele>92.901568</ele>
        <time>2023-11-13T18:31:48.737Z</time>
      </trkpt>
      <trkpt lat="50.868939" lon="6.867066">
        <ele>92.916939</ele>
        <time>2023-11-13T18:31:50.044Z</time>
      </trkpt>
      <trkpt lat="50.869532" lon="6.868443">
        <ele>95.421752</ele>
        <time>2023-11-13T18:33:43.856Z</time>
      </trkpt>
      <trkpt lat="50.869699" lon="6.868747">
        <ele>96.902247</ele>
        <time>2023-11-13T18:34:14.040Z</time>
      </trkpt>
      <trkpt lat="50.870122" lon="6.869143">
        <ele>99.761966</ele>
        <time>2023-11-13T18:35:13.292Z</time>
      </trkpt>
      <trkpt lat="50.869979" lon="6.869397">
        <ele>101.012295</ele>
        <time>2023-11-13T18:35:39.827Z</time>
      </trkpt>
      <trkpt lat="50.869855" lon="6.869608">
        <ele>102.071380</ele>
        <time>2023-11-13T18:36:02.342Z</time>
      </trkpt>
      <trkpt lat="50.869843" lon="6.869629">
        <ele>102.175443</ele>
        <time>2023-11-13T18:36:04.561Z</time>
      </trkpt>
      <trkpt lat="50.869765" lon="6.869885">
        <ele>103.219671</ele>
        <time>2023-11-13T18:36:27.455Z</time>
      </trkpt>
      <trkpt lat="50.869761" lon="6.869982">
        <ele>103.576742</ele>
        <time>2023-11-13T18:36:35.345Z</time>
      </trkpt>
      <trkpt lat="50.869822" lon="6.870315">
        <ele>104.896849</ele>
        <time>2023-11-13T18:37:02.762Z</time>
      </trkpt>
      <trkpt lat="50.869929" lon="6.870599">
        <ele>106.214863</ele>
        <time>2023-11-13T18:37:29.820Z</time>
      </trkpt>
      <trkpt lat="50.869961" lon="6.870669">
        <ele>106.559291</ele>
        <time>2023-11-13T18:37:36.668Z</time>
      </trkpt>
      <trkpt lat="50.870342" lon="6.871513">
        <ele>110.694286</ele>
        <time>2023-11-13T18:39:00.905Z</time>
      </trkpt>
      <trkpt lat="50.870533" lon="6.872059">
        <ele>113.181856</ele>
        <time>2023-11-13T18:39:48.533Z</time>
      </trkpt>
      <trkpt lat="50.870625" lon="6.872275">
        <ele>114.220249</ele>
        <time>2023-11-13T18:40:06.506Z</time>
      </trkpt>
      <trkpt lat="50.870568" lon="6.872296">
        <ele>114.589758</ele>
        <time>2023-11-13T18:40:13.428Z</time>
      </trkpt>
      <trkpt lat="50.870530" lon="6.872262">
        <ele>114.865305</ele>
        <time>2023-11-13T18:40:18.578Z</time>
      </trkpt>
      <trkpt lat="50.870116" lon="6.871715">
        <ele>116.085908</ele>
        <time>2023-11-13T18:41:16.276Z</time>
      </trkpt>
      <trkpt lat="50.869865" lon="6.871383">
        <ele>116.422813</ele>
        <time>2023-11-13T18:41:50.560Z</time>
      </trkpt>
      <trkpt lat="50.869186" lon="6.870609">
        <ele>117.284712</ele>
        <time>2023-11-13T18:43:14.562Z</time>
      </trkpt>
      <trkpt lat="50.869083" lon="6.870491">
        <ele>117.415681</ele>
        <time>2023-11-13T18:43:27.349Z</time>
      </trkpt>
      <trkpt lat="50.869030" lon="6.870473">
        <ele>117.471534</ele>
        <time>2023-11-13T18:43:32.729Z</time>
      </trkpt>
      <trkpt lat="50.868959" lon="6.870448">
        <ele>117.536724</ele>
        <time>2023-11-13T18:43:40.110Z</time>
      </trkpt>
      <trkpt lat="50.868640" lon="6.870511">
        <ele>117.769775</ele>
        <time>2023-11-13T18:44:12.293Z</time>
      </trkpt>
      <trkpt lat="50.867863" lon="6.871105">
        <ele>118.395203</ele>
        <time>2023-11-13T18:45:39.764Z</time>
      </trkpt>
      <trkpt lat="50.867939" lon="6.871142">
        <ele>118.452842</ele>
        <time>2023-11-13T18:45:48.197Z</time>
      </trkpt>
      <trkpt lat="50.868032" lon="6.871240">
        <ele>118.533812</ele>
        <time>2023-11-13T18:45:59.822Z</time>
      </trkpt>
      <trkpt lat="50.868230" lon="6.871195">
        <ele>118.678823</ele>
        <time>2023-11-13T18:46:21.101Z</time>
      </trkpt>
      <trkpt lat="50.868346" lon="6.871082">
        <ele>118.777540</ele>
        <time>2023-11-13T18:46:35.784Z</time>
      </trkpt>
      <trkpt lat="50.868693" lon="6.870743">
        <ele>119.027761</ele>
        <time>2023-11-13T18:47:19.484Z</time>
      </trkpt>
      <trkpt lat="50.868774" lon="6.870693">
        <ele>119.079608</ele>
        <time>2023-11-13T18:47:28.620Z</time>
      </trkpt>
      <trkpt lat="50.868857" lon="6.870693">
        <ele>119.129111</ele>
        <time>2023-11-13T18:47:37.328Z</time>
      </trkpt>
      <trkpt lat="50.869141" lon="6.870861">
        <ele>119.309914</ele>
        <time>2023-11-13T18:48:09.024Z</time>
      </trkpt>
      <trkpt lat="50.869243" lon="6.871110">
        <ele>119.421650</ele>
        <time>2023-11-13T18:48:28.490Z</time>
      </trkpt>
      <trkpt lat="50.869563" lon="6.871555">
        <ele>119.675581</ele>
        <time>2023-11-13T18:49:11.699Z</time>
      </trkpt>
      <trkpt lat="50.869663" lon="6.871820">
        <ele>119.791797</ele>
        <time>2023-11-13T18:49:31.363Z</time>
      </trkpt>
      <trkpt lat="50.870082" lon="6.872568">
        <ele>118.300936</ele>
        <time>2023-11-13T18:50:35.929Z</time>
      </trkpt>
      <trkpt lat="50.870811" lon="6.873872">
        <ele>114.552051</ele>
        <time>2023-11-13T18:52:35.134Z</time>
      </trkpt>
      <trkpt lat="50.870985" lon="6.875153">
        <ele>111.912733</ele>
        <time>2023-11-13T18:54:07.379Z</time>
      </trkpt>
      <trkpt lat="50.870963" lon="6.875181">
        <ele>111.825087</ele>
        <time>2023-11-13T18:54:10.429Z</time>
      </trkpt>
      <trkpt lat="50.870404" lon="6.875039">
        <ele>110.066628</ele>
        <time>2023-11-13T18:55:10.030Z</time>
      </trkpt>
      <trkpt lat="50.870459" lon="6.875433">
        <ele>109.275655</ele>
        <time>2023-11-13T18:55:36.769Z</time>
      </trkpt>
      <trkpt lat="50.870350" lon="6.875571">
        <ele>108.842301</ele>
        <time>2023-11-13T18:55:51.094Z</time>
      </trkpt>
      <trkpt lat="50.870364" lon="6.875800">
        <ele>108.391322</ele>
        <time>2023-11-13T18:56:06.303Z</time>
      </trkpt>
      <trkpt lat="50.870312" lon="6.876163">
        <ele>108.298949</ele>
        <time>2023-11-13T18:56:30.228Z</time>
      </trkpt>
      <trkpt lat="50.870267" lon="6.876476">
        <ele>108.458248</ele>
        <time>2023-11-13T18:56:50.759Z</time>
      </trkpt>
      <trkpt lat="50.869991" lon="6.876960">
        <ele>108.781950</ele>
        <time>2023-11-13T18:57:32.546Z</time>
      </trkpt>
      <trkpt lat="50.870707" lon="6.877622">
        <ele>109.433782</ele>
        <time>2023-11-13T18:59:01.886Z</time>
      </trkpt>
      <trkpt lat="50.871109" lon="6.877947">
        <ele>109.360144</ele>
        <time>2023-11-13T18:59:50.705Z</time>
      </trkpt>
      <trkpt lat="50.871252" lon="6.877894">
        <ele>109.233216</ele>
        <time>2023-11-13T19:00:06.042Z</time>
      </trkpt>
      <trkpt lat="50.871376" lon="6.877798">
        <ele>109.113938</ele>
        <time>2023-11-13T19:00:20.530Z</time>
      </trkpt>
      <trkpt lat="50.871419" lon="6.877729">
        <ele>109.061047</ele>
        <time>2023-11-13T19:00:26.948Z</time>
      </trkpt>
      <trkpt lat="50.871445" lon="6.877845">
        <ele>108.993907</ele>
        <time>2023-11-13T19:00:34.983Z</time>
      </trkpt>
      <trkpt lat="50.871442" lon="6.877852">
        <ele>108.989292</ele>
        <time>2023-11-13T19:00:35.516Z</time>
      </trkpt>
      <trkpt lat="50.871395" lon="6.877956">
        <ele>108.919523</ele>
        <time>2023-11-13T19:00:44.099Z</time>
      </trkpt>
      <trkpt lat="50.871393" lon="6.878124">
        <ele>108.827877</ele>
        <time>2023-11-13T19:00:55.522Z</time>
      </trkpt>
      <trkpt lat="50.871350" lon="6.878238">
        <ele>108.755440</ele>
        <time>2023-11-13T19:01:04.426Z</time>
      </trkpt>
      <trkpt lat="50.871367" lon="6.878351">
        <ele>108.692080</ele>
        <time>2023-11-13T19:01:11.886Z</time>
      </trkpt>
      <trkpt lat="50.871274" lon="6.878355">
        <ele>108.611673</ele>
        <time>2023-11-13T19:01:21.516Z</time>
      </trkpt>
      <trkpt lat="50.871288" lon="6.878475">
        <ele>108.545113</ele>
        <time>2023-11-13T19:01:29.691Z</time>
      </trkpt>
      <trkpt lat="50.871250" lon="6.878535">
        <ele>108.498750</ele>
        <time>2023-11-13T19:01:35.396Z</time>
      </trkpt>
      <trkpt lat="50.871263" lon="6.878577">
        <ele>108.473235</ele>
        <time>2023-11-13T19:01:38.511Z</time>
      </trkpt>
      <trkpt lat="50.871311" lon="6.878590">
        <ele>108.431148</ele>
        <time>2023-11-13T19:01:43.506Z</time>
      </trkpt>
      <trkpt lat="50.871341" lon="6.878725">
        <ele>108.353085</ele>
        <time>2023-11-13T19:01:52.569Z</time>
      </trkpt>
      <trkpt lat="50.871383" lon="6.878926">
        <ele>108.237603</ele>
        <time>2023-11-13T19:02:06.511Z</time>
      </trkpt>
      <trkpt lat="50.871414" lon="6.879075">
        <ele>108.152033</ele>
        <time>2023-11-13T19:02:16.913Z</time>
      </trkpt>
      <trkpt lat="50.871377" lon="6.879377">
        <ele>108.048624</ele>
        <time>2023-11-13T19:02:36.612Z</time>
      </trkpt>
      <trkpt lat="50.871392" lon="6.879728">
        <ele>108.126837</ele>
        <time>2023-11-13T19:02:59.613Z</time>
      </trkpt>
      <trkpt lat="50.871317" lon="6.880184">
        <ele>108.231603</ele>
        <time>2023-11-13T19:03:29.494Z</time>
      </trkpt>
      <trkpt lat="50.871026" lon="6.879981">
        <ele>108.343616</ele>
        <time>2023-11-13T19:04:01.313Z</time>
      </trkpt>
      <trkpt lat="50.870883" lon="6.879881">
        <ele>108.398682</ele>
        <time>2023-11-13T19:04:17.139Z</time>
      </trkpt>
      <trkpt lat="50.870107" lon="6.879221">
        <ele>109.070581</ele>
        <time>2023-11-13T19:05:48.494Z</time>
      </trkpt>
      <trkpt lat="50.869990" lon="6.879087">
        <ele>109.527278</ele>
        <time>2023-11-13T19:06:04.688Z</time>
      </trkpt>
      <trkpt lat="50.869967" lon="6.879061">
        <ele>109.616658</ele>
        <time>2023-11-13T19:06:07.861Z</time>
      </trkpt>
      <trkpt lat="50.869851" lon="6.878908">
        <ele>110.094125</ele>
        <time>2023-11-13T19:06:25.269Z</time>
      </trkpt>
      <trkpt lat="50.869756" lon="6.878693">
        <ele>110.618121</ele>
        <time>2023-11-13T19:06:44.196Z</time>
      </trkpt>
      <trkpt lat="50.869564" lon="6.878412">
        <ele>111.444967</ele>
        <time>2023-11-13T19:07:13.969Z</time>
      </trkpt>
      <trkpt lat="50.869283" lon="6.878129">
        <ele>112.498287</ele>
        <time>2023-11-13T19:07:51.570Z</time>
      </trkpt>
      <trkpt lat="50.868851" lon="6.877738">
        <ele>114.072182</ele>
        <time>2023-11-13T19:08:47.488Z</time>
      </trkpt>
      <trkpt lat="50.868792" lon="6.877688">
        <ele>114.283851</ele>
        <time>2023-11-13T19:08:54.982Z</time>
      </trkpt>
      <trkpt lat="50.868291" lon="6.877210">
        <ele>115.489422</ele>
        <time>2023-11-13T19:09:59.101Z</time>
      </trkpt>
      <trkpt lat="50.866601" lon="6.875617">
        <ele>118.808951</ele>
        <time>2023-11-13T19:13:26.698Z</time>
      </trkpt>
      <trkpt lat="50.866337" lon="6.875368">
        <ele>119.156003</ele>
        <time>2023-11-13T19:13:58.924Z</time>
      </trkpt>
      <trkpt lat="50.865890" lon="6.874938">
        <ele>119.746711</ele>
        <time>2023-11-13T19:14:52.798Z</time>
      </trkpt>
      <trkpt lat="50.865403" lon="6.874471">
        <ele>120.085796</ele>
        <time>2023-11-13T19:15:50.798Z</time>
      </trkpt>
      <trkpt lat="50.865361" lon="6.874469">
        <ele>120.094709</ele>
        <time>2023-11-13T19:15:55.169Z</time>
      </trkpt>
      <trkpt lat="50.865323" lon="6.874587">
        <ele>120.112445</ele>
        <time>2023-11-13T19:16:03.600Z</time>
      </trkpt>
      <trkpt lat="50.864797" lon="6.873986">
        <ele>120.250012</ele>
        <time>2023-11-13T19:17:08.930Z</time>
      </trkpt>
      <trkpt lat="50.864764" lon="6.873909">
        <ele>120.262473</ele>
        <time>2023-11-13T19:17:14.843Z</time>
      </trkpt>
      <trkpt lat="50.864736" lon="6.873837">
        <ele>120.273796</ele>
        <time>2023-11-13T19:17:20.189Z</time>
      </trkpt>
      <trkpt lat="50.864706" lon="6.873757">
        <ele>120.286254</ele>
        <time>2023-11-13T19:17:26.109Z</time>
      </trkpt>
      <trkpt lat="50.864634" lon="6.873808">
        <ele>120.302985</ele>
        <time>2023-11-13T19:17:34.009Z</time>
      </trkpt>
      <trkpt lat="50.864587" lon="6.873837">
        <ele>120.313684</ele>
        <time>2023-11-13T19:17:39.101Z</time>
      </trkpt>
      <trkpt lat="50.864627" lon="6.873948">
        <ele>120.330797</ele>
        <time>2023-11-13T19:17:47.190Z</time>
      </trkpt>
      <trkpt lat="50.864649" lon="6.874007">
        <ele>120.339972</ele>
        <time>2023-11-13T19:17:51.550Z</time>
      </trkpt>
      <trkpt lat="50.864671" lon="6.874069">
        <ele>120.349495</ele>
        <time>2023-11-13T19:17:56.113Z</time>
      </trkpt>
      <trkpt lat="50.864717" lon="6.874107">
        <ele>120.360499</ele>
        <time>2023-11-13T19:18:01.339Z</time>
      </trkpt>
      <trkpt lat="50.864705" lon="6.874231">
        <ele>120.377295</ele>
        <time>2023-11-13T19:18:09.284Z</time>
      </trkpt>
      <trkpt lat="50.864678" lon="6.874405">
        <ele>120.416684</ele>
        <time>2023-11-13T19:18:20.654Z</time>
      </trkpt>
      <trkpt lat="50.864628" lon="6.874725">
        <ele>120.621904</ele>
        <time>2023-11-13T19:18:41.491Z</time>
      </trkpt>
      <trkpt lat="50.864563" lon="6.875142">
        <ele>120.889295</ele>
        <time>2023-11-13T19:19:09.159Z</time>
      </trkpt>
      <trkpt lat="50.864462" lon="6.875789">
        <ele>121.304204</ele>
        <time>2023-11-13T19:19:52.665Z</time>
      </trkpt>
      <trkpt lat="50.864352" lon="6.876422">
        <ele>121.712925</ele>
        <time>2023-11-13T19:20:36.355Z</time>
      </trkpt>
      <trkpt lat="50.864311" lon="6.876592">
        <ele>121.826218</ele>
        <time>2023-11-13T19:20:48.396Z</time>
      </trkpt>
      <trkpt lat="50.864224" lon="6.876896">
        <ele>122.034011</ele>
        <time>2023-11-13T19:21:10.499Z</time>
      </trkpt>
      <trkpt lat="50.863978" lon="6.877372">
        <ele>122.578549</ele>
        <time>2023-11-13T19:21:51.536Z</time>
      </trkpt>
      <trkpt lat="50.863417" lon="6.878317">
        <ele>123.916784</ele>
        <time>2023-11-13T19:23:19.143Z</time>
      </trkpt>
      <trkpt lat="50.863339" lon="6.878449">
        <ele>124.103308</ele>
        <time>2023-11-13T19:23:31.383Z</time>
      </trkpt>
      <trkpt lat="50.863310" lon="6.878654">
        <ele>124.320021</ele>
        <time>2023-11-13T19:23:45.562Z</time>
      </trkpt>
      <trkpt lat="50.863315" lon="6.878963">
        <ele>124.638873</ele>
        <time>2023-11-13T19:24:06.079Z</time>
      </trkpt>
      <trkpt lat="50.863320" lon="6.879336">
        <ele>125.023726</ele>
        <time>2023-11-13T19:24:30.779Z</time>
      </trkpt>
      <trkpt lat="50.863324" lon="6.879752">
        <ele>125.170564</ele>
        <time>2023-11-13T19:24:57.960Z</time>
      </trkpt>
      <trkpt lat="50.863219" lon="6.879759">
        <ele>125.200617</ele>
        <time>2023-11-13T19:25:08.877Z</time>
      </trkpt>
      <trkpt lat="50.862813" lon="6.879773">
        <ele>125.316747</ele>
        <time>2023-11-13T19:25:50.887Z</time>
      </trkpt>
      <trkpt lat="50.862453" lon="6.879786">
        <ele>125.419722</ele>
        <time>2023-11-13T19:26:27.632Z</time>
      </trkpt>
      <trkpt lat="50.861410" lon="6.879837">
        <ele>125.092107</ele>
        <time>2023-11-13T19:28:13.157Z</time>
      </trkpt>
      <trkpt lat="50.860534" lon="6.880044">
        <ele>123.642111</ele>
        <time>2023-11-13T19:29:45.018Z</time>
      </trkpt>
      <trkpt lat="50.860443" lon="6.880060">
        <ele>123.492217</ele>
        <time>2023-11-13T19:29:54.554Z</time>
      </trkpt>
      <trkpt lat="50.860287" lon="6.880122">
        <ele>123.228910</ele>
        <time>2023-11-13T19:30:11.357Z</time>
      </trkpt>
      <trkpt lat="50.860204" lon="6.880155">
        <ele>123.088814</ele>
        <time>2023-11-13T19:30:20.329Z</time>
      </trkpt>
      <trkpt lat="50.860133" lon="6.880227">
        <ele>122.950804</ele>
        <time>2023-11-13T19:30:29.149Z</time>
      </trkpt>
      <trkpt lat="50.859987" lon="6.880544">
        <ele>122.565489</ele>
        <time>2023-11-13T19:30:55.146Z</time>
      </trkpt>
      <trkpt lat="50.859817" lon="6.881026">
        <ele>122.080209</ele>
        <time>2023-11-13T19:31:31.797Z</time>
      </trkpt>
      <trkpt lat="50.859710" lon="6.881276">
        <ele>121.814734</ele>
        <time>2023-11-13T19:31:51.663Z</time>
      </trkpt>
      <trkpt lat="50.859640" lon="6.881440">
        <ele>121.640732</ele>
        <time>2023-11-13T19:32:04.726Z</time>
      </trkpt>
      <trkpt lat="50.859551" lon="6.881584">
        <ele>121.463601</ele>
        <time>2023-11-13T19:32:18.031Z</time>
      </trkpt>
      <trkpt lat="50.858699" lon="6.882787">
        <ele>120.400877</ele>
        <time>2023-11-13T19:34:14.161Z</time>
      </trkpt>
      <trkpt lat="50.858439" lon="6.883088">
        <ele>120.735311</ele>
        <time>2023-11-13T19:34:47.025Z</time>
      </trkpt>
      <trkpt lat="50.857815" lon="6.883334">
        <ele>121.403121</ele>
        <time>2023-11-13T19:35:54.187Z</time>
      </trkpt>
      <trkpt lat="50.857318" lon="6.883784">
        <ele>121.997630</ele>
        <time>2023-11-13T19:36:55.363Z</time>
      </trkpt>
      <trkpt lat="50.856815" lon="6.884316">
        <ele>122.666482</ele>
        <time>2023-11-13T19:38:00.475Z</time>
      </trkpt>
      <trkpt lat="50.856708" lon="6.884398">
        <ele>122.798570</ele>
        <time>2023-11-13T19:38:13.142Z</time>
      </trkpt>
      <trkpt lat="50.856260" lon="6.884739">
        <ele>123.350901</ele>
        <time>2023-11-13T19:39:05.964Z</time>
      </trkpt>
      <trkpt lat="50.856205" lon="6.884764">
        <ele>123.414487</ele>
        <time>2023-11-13T19:39:12.006Z</time>
      </trkpt>
      <trkpt lat="50.856089" lon="6.884816">
        <ele>123.548455</ele>
        <time>2023-11-13T19:39:24.444Z</time>
      </trkpt>
      <trkpt lat="50.855003" lon="6.884997">
        <ele>123.419418</ele>
        <time>2023-11-13T19:41:15.166Z</time>
      </trkpt>
      <trkpt lat="50.854998" lon="6.884834">
        <ele>123.320211</ele>
        <time>2023-11-13T19:41:25.812Z</time>
      </trkpt>
      <trkpt lat="50.854961" lon="6.883774">
        <ele>122.674841</ele>
        <time>2023-11-13T19:42:34.841Z</time>
      </trkpt>
      <trkpt lat="50.854979" lon="6.882963">
        <ele>122.302318</ele>
        <time>2023-11-13T19:43:27.356Z</time>
      </trkpt>
      <trkpt lat="50.855021" lon="6.881869">
        <ele>122.259354</ele>
        <time>2023-11-13T19:44:37.556Z</time>
      </trkpt>
      <trkpt lat="50.855026" lon="6.881766">
        <ele>122.255304</ele>
        <time>2023-11-13T19:44:44.141Z</time>
      </trkpt>
      <trkpt lat="50.855042" lon="6.881331">
        <ele>122.238223</ele>
        <time>2023-11-13T19:45:12.159Z</time>
      </trkpt>
      <trkpt lat="50.855057" lon="6.880930">
        <ele>122.222476</ele>
        <time>2023-11-13T19:45:38.269Z</time>
      </trkpt>
      <trkpt lat="50.854983" lon="6.879090">
        <ele>122.708274</ele>
        <time>2023-11-13T19:47:37.682Z</time>
      </trkpt>
      <trkpt lat="50.854092" lon="6.879306">
        <ele>123.292988</ele>
        <time>2023-11-13T19:49:09.511Z</time>
      </trkpt>
      <trkpt lat="50.853574" lon="6.879314">
        <ele>123.772946</ele>
        <time>2023-11-13T19:50:02.519Z</time>
      </trkpt>
      <trkpt lat="50.851946" lon="6.879315">
        <ele>125.370318</ele>
        <time>2023-11-13T19:52:51.868Z</time>
      </trkpt>
      <trkpt lat="50.851361" lon="6.879402">
        <ele>125.870061</ele>
        <time>2023-11-13T19:53:53.716Z</time>
      </trkpt>
      <trkpt lat="50.850129" lon="6.879585">
        <ele>126.506079</ele>
        <time>2023-11-13T19:56:00.599Z</time>
      </trkpt>
      <trkpt lat="50.847471" lon="6.879755">
        <ele>123.093292</ele>
        <time>2023-11-13T20:00:33.089Z</time>
      </trkpt>
      <trkpt lat="50.847507" lon="6.878255">
        <ele>121.026861</ele>
        <time>2023-11-13T20:02:14.571Z</time>
      </trkpt>
      <trkpt lat="50.847598" lon="6.878260">
        <ele>120.793036</ele>
        <time>2023-11-13T20:02:24.309Z</time>
      </trkpt>
      <trkpt lat="50.847507" lon="6.878255">
        <ele>120.559212</ele>
        <time>2023-11-13T20:02:34.068Z</time>
      </trkpt>
      <trkpt lat="50.846700" lon="6.878255">
        <ele>118.486869</ele>
        <time>2023-11-13T20:04:00.593Z</time>
      </trkpt>
      <trkpt lat="50.846483" lon="6.878400">
        <ele>117.882057</ele>
        <time>2023-11-13T20:04:25.072Z</time>
      </trkpt>
      <trkpt lat="50.846320" lon="6.878558">
        <ele>117.391305</ele>
        <time>2023-11-13T20:04:44.640Z</time>
      </trkpt>
      <trkpt lat="50.845972" lon="6.878585">
        <ele>117.080023</ele>
        <time>2023-11-13T20:05:19.544Z</time>
      </trkpt>
      <trkpt lat="50.845654" lon="6.878638">
        <ele>117.043588</ele>
        <time>2023-11-13T20:05:51.786Z</time>
      </trkpt>
      <trkpt lat="50.845485" lon="6.878782">
        <ele>117.021721</ele>
        <time>2023-11-13T20:06:11.145Z</time>
      </trkpt>
      <trkpt lat="50.845185" lon="6.879037">
        <ele>116.982925</ele>
        <time>2023-11-13T20:06:45.577Z</time>
      </trkpt>
      <trkpt lat="50.845108" lon="6.879068">
        <ele>116.973872</ele>
        <time>2023-11-13T20:06:53.587Z</time>
      </trkpt>
      <trkpt lat="50.844992" lon="6.879048">
        <ele>116.960577</ele>
        <time>2023-11-13T20:07:05.341Z</time>
      </trkpt>
      <trkpt lat="50.844594" lon="6.878736">
        <ele>116.909975</ele>
        <time>2023-11-13T20:07:49.872Z</time>
      </trkpt>
      <trkpt lat="50.844251" lon="6.878604">
        <ele>116.651910</ele>
        <time>2023-11-13T20:08:25.173Z</time>
      </trkpt>
      <trkpt lat="50.843824" lon="6.878430">
        <ele>116.264003</ele>
        <time>2023-11-13T20:09:09.440Z</time>
      </trkpt>
      <trkpt lat="50.843398" lon="6.878266">
        <ele>115.878297</ele>
        <time>2023-11-13T20:09:54.008Z</time>
      </trkpt>
      <trkpt lat="50.843305" lon="6.878337">
        <ele>115.787465</ele>
        <time>2023-11-13T20:10:04.607Z</time>
      </trkpt>
      <trkpt lat="50.842950" lon="6.878610">
        <ele>115.440264</ele>
        <time>2023-11-13T20:10:45.541Z</time>
      </trkpt>
      <trkpt lat="50.842150" lon="6.879223">
        <ele>114.010438</ele>
        <time>2023-11-13T20:12:18.397Z</time>
      </trkpt>
      <trkpt lat="50.842109" lon="6.878565">
        <ele>113.283240</ele>
        <time>2023-11-13T20:13:01.636Z</time>
      </trkpt>
      <trkpt lat="50.842044" lon="6.878323">
        <ele>112.994006</ele>
        <time>2023-11-13T20:13:18.771Z</time>
      </trkpt>
      <trkpt lat="50.841975" lon="6.877982">
        <ele>112.600181</ele>
        <time>2023-11-13T20:13:42.147Z</time>
      </trkpt>
      <trkpt lat="50.840867" lon="6.876180">
        <ele>110.432565</ele>
        <time>2023-11-13T20:16:25.625Z</time>
      </trkpt>
      <trkpt lat="50.840423" lon="6.875707">
        <ele>109.781065</ele>
        <time>2023-11-13T20:17:20.441Z</time>
      </trkpt>
      <trkpt lat="50.840299" lon="6.875858">
        <ele>109.655543</ele>
        <time>2023-11-13T20:17:36.381Z</time>
      </trkpt>
      <trkpt lat="50.839652" lon="6.875643">
        <ele>109.125051</ele>
        <time>2023-11-13T20:18:43.775Z</time>
      </trkpt>
      <trkpt lat="50.838986" lon="6.875218">
        <ele>108.548859</ele>
        <time>2023-11-13T20:19:56.914Z</time>
      </trkpt>
      <trkpt lat="50.838837" lon="6.874892">
        <ele>108.507725</ele>
        <time>2023-11-13T20:20:22.695Z</time>
      </trkpt>
      <trkpt lat="50.838788" lon="6.874660">
        <ele>108.703966</ele>
        <time>2023-11-13T20:20:38.385Z</time>
      </trkpt>
      <trkpt lat="50.838767" lon="6.874559">
        <ele>108.789266</ele>
        <time>2023-11-13T20:20:45.228Z</time>
      </trkpt>
      <trkpt lat="50.838805" lon="6.874368">
        <ele>108.949909</ele>
        <time>2023-11-13T20:20:57.943Z</time>
      </trkpt>
      <trkpt lat="50.839049" lon="6.872269">
        <ele>110.661996</ele>
        <time>2023-11-13T20:23:21.084Z</time>
      </trkpt>
      <trkpt lat="50.839224" lon="6.871167">
        <ele>112.399389</ele>
        <time>2023-11-13T20:24:40.970Z</time>
      </trkpt>
      <trkpt lat="50.839403" lon="6.870274">
        <ele>113.855670</ele>
        <time>2023-11-13T20:25:46.279Z</time>
      </trkpt>
      <trkpt lat="50.839517" lon="6.869981">
        <ele>114.390595</ele>
        <time>2023-11-13T20:26:09.962Z</time>
      </trkpt>
      <trkpt lat="50.839593" lon="6.869783">
        <ele>114.750746</ele>
        <time>2023-11-13T20:26:25.923Z</time>
      </trkpt>
      <trkpt lat="50.839629" lon="6.869513">
        <ele>115.102940</ele>
        <time>2023-11-13T20:26:44.583Z</time>
      </trkpt>
      <trkpt lat="50.839664" lon="6.869349">
        <ele>115.026704</ele>
        <time>2023-11-13T20:26:55.908Z</time>
      </trkpt>
      <trkpt lat="50.839613" lon="6.869312">
        <ele>114.987584</ele>
        <time>2023-11-13T20:27:01.748Z</time>
      </trkpt>
      <trkpt lat="50.839570" lon="6.869223">
        <ele>114.938234</ele>
        <time>2023-11-13T20:27:09.015Z</time>
      </trkpt>
      <trkpt lat="50.839267" lon="6.869025">
        <ele>114.709648</ele>
        <time>2023-11-13T20:27:42.059Z</time>
      </trkpt>
      <trkpt lat="50.839168" lon="6.869056">
        <ele>114.639272</ele>
        <time>2023-11-13T20:27:52.131Z</time>
      </trkpt>
      <trkpt lat="50.839134" lon="6.868983">
        <ele>114.599326</ele>
        <time>2023-11-13T20:27:57.976Z</time>
      </trkpt>
      <trkpt lat="50.839114" lon="6.868930">
        <ele>114.572136</ele>
        <time>2023-11-13T20:28:01.974Z</time>
      </trkpt>
      <trkpt lat="50.839167" lon="6.868772">
        <ele>114.493348</ele>
        <time>2023-11-13T20:28:13.515Z</time>
      </trkpt>
      <trkpt lat="50.839202" lon="6.868669">
        <ele>114.441838</ele>
        <time>2023-11-13T20:28:21.074Z</time>
      </trkpt>
      <trkpt lat="50.839103" lon="6.868583">
        <ele>114.363093</ele>
        <time>2023-11-13T20:28:32.652Z</time>
      </trkpt>
      <trkpt lat="50.839141" lon="6.868381">
        <ele>114.270272</ele>
        <time>2023-11-13T20:28:46.503Z</time>
      </trkpt>
      <trkpt lat="50.839161" lon="6.868279">
        <ele>114.223237</ele>
        <time>2023-11-13T20:28:53.466Z</time>
      </trkpt>
      <trkpt lat="50.839251" lon="6.868212">
        <ele>114.153884</ele>
        <time>2023-11-13T20:29:03.846Z</time>
      </trkpt>
      <trkpt lat="50.839357" lon="6.868210">
        <ele>114.079958</ele>
        <time>2023-11-13T20:29:14.980Z</time>
      </trkpt>
      <trkpt lat="50.839467" lon="6.868147">
        <ele>113.998385</ele>
        <time>2023-11-13T20:29:27.356Z</time>
      </trkpt>
      <trkpt lat="50.839631" lon="6.867967">
        <ele>113.847504</ele>
        <time>2023-11-13T20:29:48.353Z</time>
      </trkpt>
      <trkpt lat="50.839777" lon="6.867767">
        <ele>113.463686</ele>
        <time>2023-11-13T20:30:08.752Z</time>
      </trkpt>
      <trkpt lat="50.839924" lon="6.867650">
        <ele>113.136579</ele>
        <time>2023-11-13T20:30:26.145Z</time>
      </trkpt>
      <trkpt lat="50.840088" lon="6.867475">
        <ele>112.743393</ele>
        <time>2023-11-13T20:30:47.076Z</time>
      </trkpt>
      <trkpt lat="50.840531" lon="6.866930">
        <ele>111.628055</ele>
        <time>2023-11-13T20:31:45.992Z</time>
      </trkpt>
      <trkpt lat="50.840908" lon="6.866166">
        <ele>110.410715</ele>
        <time>2023-11-13T20:32:48.830Z</time>
      </trkpt>
      <trkpt lat="50.841130" lon="6.865716">
        <ele>109.763788</ele>
        <time>2023-11-13T20:33:25.634Z</time>
      </trkpt>
      <trkpt lat="50.841264" lon="6.865459">
        <ele>109.394533</ele>
        <time>2023-11-13T20:33:47.223Z</time>
      </trkpt>
      <trkpt lat="50.841734" lon="6.864811">
        <ele>108.301179</ele>
        <time>2023-11-13T20:34:51.787Z</time>
      </trkpt>
      <trkpt lat="50.841948" lon="6.864438">
        <ele>107.742833</ele>
        <time>2023-11-13T20:35:25.060Z</time>
      </trkpt>
      <trkpt lat="50.842785" lon="6.862729">
        <ele>104.864401</ele>
        <time>2023-11-13T20:37:48.452Z</time>
      </trkpt>
      <trkpt lat="50.842956" lon="6.862457">
        <ele>104.324410</ele>
        <time>2023-11-13T20:38:14.110Z</time>
      </trkpt>
      <trkpt lat="50.843034" lon="6.862253">
        <ele>103.988894</ele>
        <time>2023-11-13T20:38:29.995Z</time>
      </trkpt>
      <trkpt lat="50.843444" lon="6.861720">
        <ele>103.065039</ele>
        <time>2023-11-13T20:39:25.349Z</time>
      </trkpt>
      <trkpt lat="50.844011" lon="6.861176">
        <ele>102.781423</ele>
        <time>2023-11-13T20:40:32.658Z</time>
      </trkpt>
      <trkpt lat="50.844536" lon="6.860302">
        <ele>102.455552</ele>
        <time>2023-11-13T20:41:50.114Z</time>
      </trkpt>
      <trkpt lat="50.844829" lon="6.859803">
        <ele>102.540300</ele>
        <time>2023-11-13T20:42:33.280Z</time>
      </trkpt>
      <trkpt lat="50.845199" lon="6.859520">
        <ele>102.918008</ele>
        <time>2023-11-13T20:43:14.521Z</time>
      </trkpt>
      <trkpt lat="50.845212" lon="6.859509">
        <ele>102.931556</ele>
        <time>2023-11-13T20:43:16.022Z</time>
      </trkpt>
      <trkpt lat="50.845472" lon="6.859114">
        <ele>103.262745</ele>
        <time>2023-11-13T20:43:52.427Z</time>
      </trkpt>
      <trkpt lat="50.845551" lon="6.858917">
        <ele>103.398200</ele>
        <time>2023-11-13T20:44:07.566Z</time>
      </trkpt>
      <trkpt lat="50.845603" lon="6.858706">
        <ele>103.529667</ele>
        <time>2023-11-13T20:44:22.361Z</time>
      </trkpt>
      <trkpt lat="50.845657" lon="6.858202">
        <ele>103.826380</ele>
        <time>2023-11-13T20:44:56.754Z</time>
      </trkpt>
      <trkpt lat="50.845672" lon="6.857940">
        <ele>103.979074</ele>
        <time>2023-11-13T20:45:14.789Z</time>
      </trkpt>
      <trkpt lat="50.845717" lon="6.857821">
        <ele>104.206710</ele>
        <time>2023-11-13T20:45:24.452Z</time>
      </trkpt>
      <trkpt lat="50.845748" lon="6.857737">
        <ele>104.431572</ele>
        <time>2023-11-13T20:45:31.057Z</time>
      </trkpt>
      <trkpt lat="50.845909" lon="6.857500">
        <ele>105.236114</ele>
        <time>2023-11-13T20:45:55.144Z</time>
      </trkpt>
      <trkpt lat="50.846073" lon="6.857433">
        <ele>105.856044</ele>
        <time>2023-11-13T20:46:13.864Z</time>
      </trkpt>
      <trkpt lat="50.846153" lon="6.857465">
        <ele>106.158059</ele>
        <time>2023-11-13T20:46:23.078Z</time>
      </trkpt>
      <trkpt lat="50.846216" lon="6.858022">
        <ele>107.465832</ele>
        <time>2023-11-13T20:47:03.260Z</time>
      </trkpt>
      <trkpt lat="50.846225" lon="6.858051">
        <ele>107.540512</ele>
        <time>2023-11-13T20:47:05.602Z</time>
      </trkpt>
      <trkpt lat="50.846320" lon="6.858393">
        <ele>108.404013</ele>
        <time>2023-11-13T20:47:32.926Z</time>
      </trkpt>
      <trkpt lat="50.846322" lon="6.858599">
        <ele>108.880154</ele>
        <time>2023-11-13T20:47:47.964Z</time>
      </trkpt>
      <trkpt lat="50.846408" lon="6.858795">
        <ele>109.431763</ele>
        <time>2023-11-13T20:48:05.836Z</time>
      </trkpt>
      <trkpt lat="50.847098" lon="6.858940">
        <ele>111.466058</ele>
        <time>2023-11-13T20:49:26.484Z</time>
      </trkpt>
      <trkpt lat="50.847584" lon="6.859043">
        <ele>112.595852</ele>
        <time>2023-11-13T20:50:21.302Z</time>
      </trkpt>
      <trkpt lat="50.847809" lon="6.859033">
        <ele>113.114488</ele>
        <time>2023-11-13T20:50:45.434Z</time>
      </trkpt>
      <trkpt lat="50.847930" lon="6.859147">
        <ele>113.438888</ele>
        <time>2023-11-13T20:51:00.280Z</time>
      </trkpt>
      <trkpt lat="50.847939" lon="6.859261">
        <ele>113.606026</ele>
        <time>2023-11-13T20:51:07.745Z</time>
      </trkpt>
      <trkpt lat="50.848113" lon="6.859454">
        <ele>114.095486</ele>
        <time>2023-11-13T20:51:29.494Z</time>
      </trkpt>
      <trkpt lat="50.848337" lon="6.859701">
        <ele>114.724380</ele>
        <time>2023-11-13T20:51:56.948Z</time>
      </trkpt>
      <trkpt lat="50.848309" lon="6.859895">
        <ele>114.676519</ele>
        <time>2023-11-13T20:52:09.638Z</time>
      </trkpt>
      <trkpt lat="50.848305" lon="6.860144">
        <ele>114.595677</ele>
        <time>2023-11-13T20:52:25.528Z</time>
      </trkpt>
      <trkpt lat="50.848293" lon="6.860405">
        <ele>114.510742</ele>
        <time>2023-11-13T20:52:42.236Z</time>
      </trkpt>
      <trkpt lat="50.848391" lon="6.860519">
        <ele>114.448236</ele>
        <time>2023-11-13T20:52:54.604Z</time>
      </trkpt>
      <trkpt lat="50.848388" lon="6.860690">
        <ele>114.392715</ele>
        <time>2023-11-13T20:53:05.702Z</time>
      </trkpt>
      <trkpt lat="50.848509" lon="6.860903">
        <ele>114.299720</ele>
        <time>2023-11-13T20:53:24.202Z</time>
      </trkpt>
      <trkpt lat="50.848516" lon="6.860916">
        <ele>114.294174</ele>
        <time>2023-11-13T20:53:25.374Z</time>
      </trkpt>
      <trkpt lat="50.848703" lon="6.861404">
        <ele>114.108900</ele>
        <time>2023-11-13T20:54:02.468Z</time>
      </trkpt>
      <trkpt lat="50.849284" lon="6.863460">
        <ele>114.203307</ele>
        <time>2023-11-13T20:56:25.399Z</time>
      </trkpt>
      <trkpt lat="50.849298" lon="6.863511">
        <ele>114.219460</ele>
        <time>2023-11-13T20:56:29.051Z</time>
      </trkpt>
      <trkpt lat="50.849407" lon="6.864447">
        <ele>114.495905</ele>
        <time>2023-11-13T20:57:31.203Z</time>
      </trkpt>
      <trkpt lat="50.849602" lon="6.866730">
        <ele>116.058726</ele>
        <time>2023-11-13T21:00:03.471Z</time>
      </trkpt>
      <trkpt lat="50.849691" lon="6.868665">
        <ele>117.211083</ele>
        <time>2023-11-13T21:02:11.679Z</time>
      </trkpt>
      <trkpt lat="50.850145" lon="6.869790">
        <ele>117.705775</ele>
        <time>2023-11-13T21:03:37.114Z</time>
      </trkpt>
      <trkpt lat="50.850388" lon="6.870391">
        <ele>117.946313</ele>
        <time>2023-11-13T21:04:22.300Z</time>
      </trkpt>
      <trkpt lat="50.850495" lon="6.870701">
        <ele>117.989227</ele>
        <time>2023-11-13T21:04:44.673Z</time>
      </trkpt>
      <trkpt lat="50.850572" lon="6.871090">
        <ele>118.038745</ele>
        <time>2023-11-13T21:05:10.557Z</time>
      </trkpt>
      <trkpt lat="50.850681" lon="6.871412">
        <ele>118.083124</ele>
        <time>2023-11-13T21:05:33.791Z</time>
      </trkpt>
      <trkpt lat="50.851279" lon="6.872204">
        <ele>118.233093</ele>
        <time>2023-11-13T21:06:52.411Z</time>
      </trkpt>
      <trkpt lat="50.851685" lon="6.872396">
        <ele>118.331816</ele>
        <time>2023-11-13T21:07:35.128Z</time>
      </trkpt>
      <trkpt lat="50.852393" lon="6.872730">
        <ele>118.546067</ele>
        <time>2023-11-13T21:08:49.978Z</time>
      </trkpt>
      <trkpt lat="50.853188" lon="6.873222">
        <ele>118.793610</ele>
        <time>2023-11-13T21:10:15.990Z</time>
      </trkpt>
      <trkpt lat="50.854217" lon="6.873980">
        <ele>119.626806</ele>
        <time>2023-11-13T21:12:11.483Z</time>
      </trkpt>
      <trkpt lat="50.854358" lon="6.874022">
        <ele>119.733884</ele>
        <time>2023-11-13T21:12:26.437Z</time>
      </trkpt>
      <trkpt lat="50.854580" lon="6.874187">
        <ele>119.916902</ele>
        <time>2023-11-13T21:12:51.703Z</time>
      </trkpt>
      <trkpt lat="50.854758" lon="6.874380">
        <ele>120.077890</ele>
        <time>2023-11-13T21:13:14.385Z</time>
      </trkpt>
      <trkpt lat="50.854902" lon="6.874490">
        <ele>120.226837</ele>
        <time>2023-11-13T21:13:31.087Z</time>
      </trkpt>
      <trkpt lat="50.855134" lon="6.874666">
        <ele>120.527262</ele>
        <time>2023-11-13T21:13:58.443Z</time>
      </trkpt>
      <trkpt lat="50.855111" lon="6.874740">
        <ele>120.588075</ele>
        <time>2023-11-13T21:14:03.937Z</time>
      </trkpt>
      <trkpt lat="50.855089" lon="6.874817">
        <ele>120.650390</ele>
        <time>2023-11-13T21:14:09.509Z</time>
      </trkpt>
      <trkpt lat="50.855180" lon="6.874889">
        <ele>120.769189</ele>
        <time>2023-11-13T21:14:20.368Z</time>
      </trkpt>
      <trkpt lat="50.855548" lon="6.875166">
        <ele>121.245035</ele>
        <time>2023-11-13T21:15:03.573Z</time>
      </trkpt>
      <trkpt lat="50.856139" lon="6.875613">
        <ele>122.009911</ele>
        <time>2023-11-13T21:16:11.758Z</time>
      </trkpt>
      <trkpt lat="50.856127" lon="6.875965">
        <ele>122.242528</ele>
        <time>2023-11-13T21:16:34.403Z</time>
      </trkpt>
      <trkpt lat="50.856466" lon="6.876091">
        <ele>122.194542</ele>
        <time>2023-11-13T21:17:09.224Z</time>
      </trkpt>
      <trkpt lat="50.856736" lon="6.876191">
        <ele>122.156330</ele>
        <time>2023-11-13T21:17:37.187Z</time>
      </trkpt>
      <trkpt lat="50.857402" lon="6.876638">
        <ele>122.056651</ele>
        <time>2023-11-13T21:18:49.996Z</time>
      </trkpt>
      <trkpt lat="50.857575" lon="6.876867">
        <ele>122.025583</ele>
        <time>2023-11-13T21:19:12.773Z</time>
      </trkpt>
      <trkpt lat="50.857877" lon="6.876923">
        <ele>122.009862</ele>
        <time>2023-11-13T21:19:43.512Z</time>
      </trkpt>
      <trkpt lat="50.858334" lon="6.877070">
        <ele>122.067015</ele>
        <time>2023-11-13T21:20:30.487Z</time>
      </trkpt>
      <trkpt lat="50.858689" lon="6.877185">
        <ele>122.111425</ele>
        <time>2023-11-13T21:21:06.827Z</time>
      </trkpt>
      <trkpt lat="50.859387" lon="6.877356">
        <ele>122.197990</ele>
        <time>2023-11-13T21:22:19.242Z</time>
      </trkpt>
      <trkpt lat="50.859892" lon="6.877413">
        <ele>122.112722</ele>
        <time>2023-11-13T21:23:10.512Z</time>
      </trkpt>
      <trkpt lat="50.860047" lon="6.877430">
        <ele>122.065063</ele>
        <time>2023-11-13T21:23:26.096Z</time>
      </trkpt>
      <trkpt lat="50.860069" lon="6.877450">
        <ele>122.057283</ele>
        <time>2023-11-13T21:23:28.646Z</time>
      </trkpt>
      <trkpt lat="50.860079" lon="6.877801">
        <ele>121.989254</ele>
        <time>2023-11-13T21:23:51.051Z</time>
      </trkpt>
      <trkpt lat="50.860140" lon="6.877922">
        <ele>121.959271</ele>
        <time>2023-11-13T21:24:01.010Z</time>
      </trkpt>
      <trkpt lat="50.860209" lon="6.877920">
        <ele>121.938102</ele>
        <time>2023-11-13T21:24:07.886Z</time>
      </trkpt>
      <trkpt lat="50.860235" lon="6.877902">
        <ele>121.929399</ele>
        <time>2023-11-13T21:24:10.742Z</time>
      </trkpt>
      <trkpt lat="50.860373" lon="6.877806">
        <ele>121.883168</ele>
        <time>2023-11-13T21:24:25.954Z</time>
      </trkpt>
      <trkpt lat="50.860510" lon="6.877681">
        <ele>121.834673</ele>
        <time>2023-11-13T21:24:42.025Z</time>
      </trkpt>
      <trkpt lat="50.861210" lon="6.877360">
        <ele>121.661009</ele>
        <time>2023-11-13T21:25:55.954Z</time>
      </trkpt>
      <trkpt lat="50.861500" lon="6.877226">
        <ele>121.652169</ele>
        <time>2023-11-13T21:26:26.645Z</time>
      </trkpt>
      <trkpt lat="50.861599" lon="6.877485">
        <ele>121.646576</ele>
        <time>2023-11-13T21:26:45.998Z</time>
      </trkpt>
      <trkpt lat="50.862521" lon="6.877192">
        <ele>121.619056</ele>
        <time>2023-11-13T21:28:20.354Z</time>
      </trkpt>
      <trkpt lat="50.862614" lon="6.877170">
        <ele>121.616305</ele>
        <time>2023-11-13T21:28:30.239Z</time>
      </trkpt>
      <trkpt lat="50.862678" lon="6.877192">
        <ele>121.614388</ele>
        <time>2023-11-13T21:28:37.114Z</time>
      </trkpt>
      <trkpt lat="50.862820" lon="6.877366">
        <ele>121.829901</ele>
        <time>2023-11-13T21:28:55.820Z</time>
      </trkpt>
      <trkpt lat="50.862880" lon="6.877522">
        <ele>121.992171</ele>
        <time>2023-11-13T21:29:08.219Z</time>
      </trkpt>
      <trkpt lat="50.862891" lon="6.877567">
        <ele>122.035036</ele>
        <time>2023-11-13T21:29:11.513Z</time>
      </trkpt>
      <trkpt lat="50.862950" lon="6.877833">
        <ele>122.285480</ele>
        <time>2023-11-13T21:29:30.326Z</time>
      </trkpt>
      <trkpt lat="50.862948" lon="6.877981">
        <ele>122.416974</ele>
        <time>2023-11-13T21:29:40.208Z</time>
      </trkpt>
      <trkpt lat="50.862926" lon="6.878151">
        <ele>122.571120</ele>
        <time>2023-11-13T21:29:52.027Z</time>
      </trkpt>
      <trkpt lat="50.862870" lon="6.878314">
        <ele>122.735967</ele>
        <time>2023-11-13T21:30:04.391Z</time>
      </trkpt>
      <trkpt lat="50.862667" lon="6.878670">
        <ele>123.162129</ele>
        <time>2023-11-13T21:30:36.560Z</time>
      </trkpt>
      <trkpt lat="50.862239" lon="6.879009">
        <ele>123.835539</ele>
        <time>2023-11-13T21:31:26.813Z</time>
      </trkpt>
      <trkpt lat="50.862248" lon="6.879132">
        <ele>123.945529</ele>
        <time>2023-11-13T21:31:35.113Z</time>
      </trkpt>
      <trkpt lat="50.862305" lon="6.879315">
        <ele>124.126800</ele>
        <time>2023-11-13T21:31:48.771Z</time>
      </trkpt>
      <trkpt lat="50.862342" lon="6.879433">
        <ele>124.157159</ele>
        <time>2023-11-13T21:31:57.466Z</time>
      </trkpt>
      <trkpt lat="50.862453" lon="6.879786">
        <ele>124.200582</ele>
        <time>2023-11-13T21:32:23.605Z</time>
      </trkpt>
      <trkpt lat="50.863219" lon="6.879759">
        <ele>124.334236</ele>
        <time>2023-11-13T21:33:42.127Z</time>
      </trkpt>
      <trkpt lat="50.863324" lon="6.879752">
        <ele>124.352569</ele>
        <time>2023-11-13T21:33:52.724Z</time>
      </trkpt>
      <trkpt lat="50.863320" lon="6.879336">
        <ele>124.398376</ele>
        <time>2023-11-13T21:34:19.124Z</time>
      </trkpt>
      <trkpt lat="50.863315" lon="6.878963">
        <ele>124.439453</ele>
        <time>2023-11-13T21:34:43.237Z</time>
      </trkpt>
      <trkpt lat="50.863310" lon="6.878654">
        <ele>124.322891</ele>
        <time>2023-11-13T21:35:03.289Z</time>
      </trkpt>
      <trkpt lat="50.863339" lon="6.878449">
        <ele>124.111224</ele>
        <time>2023-11-13T21:35:17.092Z</time>
      </trkpt>
      <trkpt lat="50.863417" lon="6.878317">
        <ele>123.929044</ele>
        <time>2023-11-13T21:35:29.006Z</time>
      </trkpt>
      <trkpt lat="50.863978" lon="6.877372">
        <ele>122.621970</ele>
        <time>2023-11-13T21:36:54.257Z</time>
      </trkpt>
      <trkpt lat="50.864224" lon="6.876896">
        <ele>122.002138</ele>
        <time>2023-11-13T21:37:34.362Z</time>
      </trkpt>
      <trkpt lat="50.864311" lon="6.876592">
        <ele>121.665842</ele>
        <time>2023-11-13T21:37:56.060Z</time>
      </trkpt>
      <trkpt lat="50.864352" lon="6.876422">
        <ele>121.550237</ele>
        <time>2023-11-13T21:38:07.875Z</time>
      </trkpt>
      <trkpt lat="50.864462" lon="6.875789">
        <ele>121.315437</ele>
        <time>2023-11-13T21:38:50.505Z</time>
      </trkpt>
      <trkpt lat="50.864563" lon="6.875142">
        <ele>121.077082</ele>
        <time>2023-11-13T21:39:33.377Z</time>
      </trkpt>
      <trkpt lat="50.864628" lon="6.874725">
        <ele>120.923472</ele>
        <time>2023-11-13T21:40:00.719Z</time>
      </trkpt>
      <trkpt lat="50.864678" lon="6.874405">
        <ele>120.805578</ele>
        <time>2023-11-13T21:40:21.628Z</time>
      </trkpt>
      <trkpt lat="50.864705" lon="6.874231">
        <ele>120.741499</ele>
        <time>2023-11-13T21:40:32.973Z</time>
      </trkpt>
      <trkpt lat="50.864717" lon="6.874107">
        <ele>120.696635</ele>
        <time>2023-11-13T21:40:40.943Z</time>
      </trkpt>
      <trkpt lat="50.864671" lon="6.874069">
        <ele>120.667241</ele>
        <time>2023-11-13T21:40:46.214Z</time>
      </trkpt>
      <trkpt lat="50.864649" lon="6.874007">
        <ele>120.641804</ele>
        <time>2023-11-13T21:40:50.785Z</time>
      </trkpt>
      <trkpt lat="50.864671" lon="6.874069">
        <ele>120.616368</ele>
        <time>2023-11-13T21:40:55.497Z</time>
      </trkpt>
      <trkpt lat="50.864717" lon="6.874107">
        <ele>120.586973</ele>
        <time>2023-11-13T21:41:00.858Z</time>
      </trkpt>
      <trkpt lat="50.864728" lon="6.874020">
        <ele>120.558395</ele>
        <time>2023-11-13T21:41:06.465Z</time>
      </trkpt>
      <trkpt lat="50.864764" lon="6.873909">
        <ele>120.524479</ele>
        <time>2023-11-13T21:41:14.421Z</time>
      </trkpt>
      <trkpt lat="50.864797" lon="6.873986">
        <ele>120.499185</ele>
        <time>2023-11-13T21:41:20.450Z</time>
      </trkpt>
      <trkpt lat="50.865323" lon="6.874587">
        <ele>120.219944</ele>
        <time>2023-11-13T21:42:25.595Z</time>
      </trkpt>
      <trkpt lat="50.865361" lon="6.874469">
        <ele>120.183942</ele>
        <time>2023-11-13T21:42:33.956Z</time>
      </trkpt>
      <trkpt lat="50.865403" lon="6.874471">
        <ele>120.165849</ele>
        <time>2023-11-13T21:42:38.253Z</time>
      </trkpt>
      <trkpt lat="50.865494" lon="6.874478">
        <ele>120.126619</ele>
        <time>2023-11-13T21:42:47.402Z</time>
      </trkpt>
      <trkpt lat="50.865570" lon="6.874462">
        <ele>120.093607</ele>
        <time>2023-11-13T21:42:55.149Z</time>
      </trkpt>
      <trkpt lat="50.865788" lon="6.874415">
        <ele>119.998873</ele>
        <time>2023-11-13T21:43:17.274Z</time>
      </trkpt>
      <trkpt lat="50.866058" lon="6.874257">
        <ele>119.874937</ele>
        <time>2023-11-13T21:43:46.305Z</time>
      </trkpt>
      <trkpt lat="50.866216" lon="6.874121">
        <ele>119.797513</ele>
        <time>2023-11-13T21:44:04.723Z</time>
      </trkpt>
      <trkpt lat="50.866354" lon="6.874057">
        <ele>119.293800</ele>
        <time>2023-11-13T21:44:19.506Z</time>
      </trkpt>
      <trkpt lat="50.866480" lon="6.874000">
        <ele>118.809798</ele>
        <time>2023-11-13T21:44:33.120Z</time>
      </trkpt>
      <trkpt lat="50.866581" lon="6.874000">
        <ele>118.436735</ele>
        <time>2023-11-13T21:44:43.817Z</time>
      </trkpt>
      <trkpt lat="50.867171" lon="6.874441">
        <ele>116.027144</ele>
        <time>2023-11-13T21:45:54.942Z</time>
      </trkpt>
      <trkpt lat="50.867286" lon="6.874577">
        <ele>115.497100</ele>
        <time>2023-11-13T21:46:10.484Z</time>
      </trkpt>
      <trkpt lat="50.867454" lon="6.874699">
        <ele>114.814493</ele>
        <time>2023-11-13T21:46:31.000Z</time>
      </trkpt>
      <trkpt lat="50.867793" lon="6.874806">
        <ele>113.537730</ele>
        <time>2023-11-13T21:47:08.950Z</time>
      </trkpt>
      <trkpt lat="50.867825" lon="6.874467">
        <ele>112.839950</ele>
        <time>2023-11-13T21:47:32.411Z</time>
      </trkpt>
      <trkpt lat="50.867835" lon="6.874358">
        <ele>112.646359</ele>
        <time>2023-11-13T21:47:40.019Z</time>
      </trkpt>
      <trkpt lat="50.867886" lon="6.874219">
        <ele>112.363768</ele>
        <time>2023-11-13T21:47:51.107Z</time>
      </trkpt>
      <trkpt lat="50.868054" lon="6.874041">
        <ele>111.800942</ele>
        <time>2023-11-13T21:48:12.889Z</time>
      </trkpt>
      <trkpt lat="50.868102" lon="6.873888">
        <ele>111.500639</ele>
        <time>2023-11-13T21:48:24.764Z</time>
      </trkpt>
      <trkpt lat="50.868181" lon="6.874142">
        <ele>111.002945</ele>
        <time>2023-11-13T21:48:43.951Z</time>
      </trkpt>
      <trkpt lat="50.868242" lon="6.874245">
        <ele>110.754689</ele>
        <time>2023-11-13T21:48:53.669Z</time>
      </trkpt>
      <trkpt lat="50.868457" lon="6.874363">
        <ele>110.121032</ele>
        <time>2023-11-13T21:49:18.292Z</time>
      </trkpt>
      <trkpt lat="50.868696" lon="6.874662">
        <ele>109.272988</ele>
        <time>2023-11-13T21:49:50.478Z</time>
      </trkpt>
      <trkpt lat="50.869057" lon="6.875115">
        <ele>108.180774</ele>
        <time>2023-11-13T21:50:36.718Z</time>
      </trkpt>
      <trkpt lat="50.869431" lon="6.875452">
        <ele>108.495520</ele>
        <time>2023-11-13T21:51:21.096Z</time>
      </trkpt>
      <trkpt lat="50.869622" lon="6.875576">
        <ele>108.646520</ele>
        <time>2023-11-13T21:51:43.225Z</time>
      </trkpt>
      <trkpt lat="50.869703" lon="6.875786">
        <ele>108.760146</ele>
        <time>2023-11-13T21:51:58.869Z</time>
      </trkpt>
      <trkpt lat="50.869766" lon="6.876421">
        <ele>109.056910</ele>
        <time>2023-11-13T21:52:41.164Z</time>
      </trkpt>
      <trkpt lat="50.869741" lon="6.876446">
        <ele>109.078536</ele>
        <time>2023-11-13T21:52:44.339Z</time>
      </trkpt>
      <trkpt lat="50.869714" lon="6.876473">
        <ele>109.101893</ele>
        <time>2023-11-13T21:52:47.899Z</time>
      </trkpt>
      <trkpt lat="50.869665" lon="6.876627">
        <ele>109.181516</ele>
        <time>2023-11-13T21:52:59.688Z</time>
      </trkpt>
      <trkpt lat="50.869991" lon="6.876960">
        <ele>109.455014</ele>
        <time>2023-11-13T21:53:40.112Z</time>
      </trkpt>
      <trkpt lat="50.870707" lon="6.877622">
        <ele>109.308264</ele>
        <time>2023-11-13T21:55:03.843Z</time>
      </trkpt>
      <trkpt lat="50.871109" lon="6.877947">
        <ele>109.228373</ele>
        <time>2023-11-13T21:55:50.216Z</time>
      </trkpt>
      <trkpt lat="50.871252" lon="6.877894">
        <ele>109.202375</ele>
        <time>2023-11-13T21:56:05.514Z</time>
      </trkpt>
      <trkpt lat="50.871376" lon="6.877798">
        <ele>109.177944</ele>
        <time>2023-11-13T21:56:19.442Z</time>
      </trkpt>
      <trkpt lat="50.871419" lon="6.877729">
        <ele>109.167110</ele>
        <time>2023-11-13T21:56:25.611Z</time>
      </trkpt>
      <trkpt lat="50.871569" lon="6.877502">
        <ele>109.239130</ele>
        <time>2023-11-13T21:56:46.555Z</time>
      </trkpt>
      <trkpt lat="50.871558" lon="6.877304">
        <ele>109.511002</ele>
        <time>2023-11-13T21:56:59.594Z</time>
      </trkpt>
      <trkpt lat="50.871543" lon="6.877000">
        <ele>109.928081</ele>
        <time>2023-11-13T21:57:19.889Z</time>
      </trkpt>
      <trkpt lat="50.871485" lon="6.875878">
        <ele>111.467890</ele>
        <time>2023-11-13T21:58:37.293Z</time>
      </trkpt>
      <trkpt lat="50.871371" lon="6.874176">
        <ele>113.199767</ele>
        <time>2023-11-13T22:00:36.711Z</time>
      </trkpt>
      <trkpt lat="50.871303" lon="6.873662">
        <ele>113.351167</ele>
        <time>2023-11-13T22:01:13.454Z</time>
      </trkpt>
      <trkpt lat="50.871171" lon="6.873256">
        <ele>113.482831</ele>
        <time>2023-11-13T22:01:43.883Z</time>
      </trkpt>
      <trkpt lat="50.870803" lon="6.872595">
        <ele>113.736944</ele>
        <time>2023-11-13T22:02:39.873Z</time>
      </trkpt>
      <trkpt lat="50.870625" lon="6.872275">
        <ele>113.841465</ele>
        <time>2023-11-13T22:03:08.080Z</time>
      </trkpt>
      <trkpt lat="50.870533" lon="6.872059">
        <ele>112.735424</ele>
        <time>2023-11-13T22:03:25.758Z</time>
      </trkpt>
      <trkpt lat="50.870342" lon="6.871513">
        <ele>110.085796</ele>
        <time>2023-11-13T22:04:09.937Z</time>
      </trkpt>
      <trkpt lat="50.869961" lon="6.870669">
        <ele>105.681418</ele>
        <time>2023-11-13T22:05:25.775Z</time>
      </trkpt>
      <trkpt lat="50.869929" lon="6.870599">
        <ele>105.314551</ele>
        <time>2023-11-13T22:05:32.081Z</time>
      </trkpt>
      <trkpt lat="50.869822" lon="6.870315">
        <ele>103.910672</ele>
        <time>2023-11-13T22:05:56.521Z</time>
      </trkpt>
      <trkpt lat="50.869761" lon="6.869982">
        <ele>102.438949</ele>
        <time>2023-11-13T22:06:22.114Z</time>
      </trkpt>
      <trkpt lat="50.869765" lon="6.869885">
        <ele>102.026365</ele>
        <time>2023-11-13T22:06:29.402Z</time>
      </trkpt>
      <trkpt lat="50.869843" lon="6.869629">
        <ele>100.933311</ele>
        <time>2023-11-13T22:06:50.707Z</time>
      </trkpt>
      <trkpt lat="50.869979" lon="6.869397">
        <ele>99.751288</ele>
        <time>2023-11-13T22:07:13.800Z</time>
      </trkpt>
      <trkpt lat="50.870122" lon="6.869143">
        <ele>98.480659</ele>
        <time>2023-11-13T22:07:38.644Z</time>
      </trkpt>
      <trkpt lat="50.870471" lon="6.868696">
        <ele>95.826246</ele>
        <time>2023-11-13T22:08:29.524Z</time>
      </trkpt>
      <trkpt lat="50.870637" lon="6.868482">
        <ele>94.560430</ele>
        <time>2023-11-13T22:08:53.684Z</time>
      </trkpt>
      <trkpt lat="50.870541" lon="6.868267">
        <ele>93.577285</ele>
        <time>2023-11-13T22:09:12.007Z</time>
      </trkpt>
      <trkpt lat="50.870405" lon="6.867964">
        <ele>92.189315</ele>
        <time>2023-11-13T22:09:37.833Z</time>
      </trkpt>
      <trkpt lat="50.870398" lon="6.867949">
        <ele>92.119675</ele>
        <time>2023-11-13T22:09:39.075Z</time>
      </trkpt>
      <trkpt lat="50.870385" lon="6.867921">
        <ele>91.989914</ele>
        <time>2023-11-13T22:09:41.438Z</time>
      </trkpt>
      <trkpt lat="50.870381" lon="6.867731">
        <ele>91.280269</ele>
        <time>2023-11-13T22:09:54.060Z</time>
      </trkpt>
      <trkpt lat="50.870400" lon="6.867703">
        <ele>91.126791</ele>
        <time>2023-11-13T22:09:56.755Z</time>
      </trkpt>
      <trkpt lat="50.870393" lon="6.867595">
        <ele>91.122672</ele>
        <time>2023-11-13T22:10:03.925Z</time>
      </trkpt>
      <trkpt lat="50.870502" lon="6.867446">
        <ele>91.122672</ele>
        <time>2023-11-13T22:10:18.696Z</time>
      </trkpt>
      <trkpt lat="50.870313" lon="6.867073">
        <ele>91.122672</ele>
        <time>2023-11-13T22:10:48.970Z</time>
      </trkpt>
      <trkpt lat="50.870145" lon="6.866742">
        <ele>91.122672</ele>
        <time>2023-11-13T22:11:16.202Z</time>
      </trkpt>
      <trkpt lat="50.870019" lon="6.866465">
        <ele>91.122672</ele>
        <time>2023-11-13T22:11:38.430Z</time>
      </trkpt>
      <trkpt lat="50.869834" lon="6.865914">
        <ele>91.122672</ele>
        <time>2023-11-13T22:12:19.357Z</time>
      </trkpt>
      <trkpt lat="50.869623" lon="6.865510">
        <ele>91.122672</ele>
        <time>2023-11-13T22:12:53.769Z</time>
      </trkpt>
      <trkpt lat="50.869585" lon="6.865434">
        <ele>91.122672</ele>
        <time>2023-11-13T22:13:00.129Z</time>
      </trkpt>
    </trkseg>
  </trk>
</gpx>